createdAt,value
2022-08-05T00:02:07.306Z,73.15
2022-08-05T00:04:37.214Z,72.75
2022-08-05T00:07:26.920Z,72.45
2022-08-05T00:09:56.462Z,72.64
2022-08-05T00:12:28.699Z,72.65
2022-08-05T00:14:58.317Z,72.58
2022-08-05T00:17:27.946Z,72.58
2022-08-05T00:20:01.986Z,72.48
2022-08-05T00:22:32.710Z,72.33
2022-08-05T00:25:02.338Z,72.23
2022-08-05T00:27:42.882Z,72.74
2022-08-05T00:30:13.589Z,72.51
2022-08-05T00:32:43.237Z,72.49
2022-08-05T00:35:13.019Z,72.46
2022-08-05T00:37:52.741Z,72.63
2022-08-05T00:40:27.206Z,72.60
2022-08-05T00:43:07.587Z,72.67
2022-08-05T00:45:38.412Z,72.96
2022-08-05T00:48:10.282Z,72.72
2022-08-05T00:50:41.331Z,72.58
2022-08-05T00:54:01.110Z,72.91
2022-08-05T00:56:04.040Z,72.64
2022-08-05T00:58:36.336Z,72.64
2022-08-05T01:01:08.674Z,73.00
2022-08-05T01:03:38.894Z,73.21
2022-08-05T01:06:11.190Z,73.04
2022-08-05T01:08:44.846Z,73.09
2022-08-05T01:11:22.380Z,73.23
2022-08-05T01:14:08.719Z,73.58
2022-08-05T01:16:41.181Z,73.31
2022-08-05T01:19:30.400Z,73.56
2022-08-05T01:22:28.960Z,73.97
2022-08-05T01:25:40.704Z,74.52
2022-08-05T01:28:29.932Z,74.31
2022-08-05T01:31:04.317Z,74.97
2022-08-05T01:33:37.896Z,74.82
2022-08-05T01:36:16.296Z,75.12
2022-08-05T01:38:48.460Z,75.55
2022-08-05T01:41:21.882Z,75.72
2022-08-05T01:43:54.445Z,75.90
2022-08-05T01:46:43.161Z,76.05
2022-08-05T01:49:22.798Z,76.26
2022-08-05T01:51:53.666Z,76.75
2022-08-05T01:54:25.707Z,77.03
2022-08-05T01:58:10.896Z,76.94
2022-08-05T01:59:51.382Z,77.06
2022-08-05T02:02:26.110Z,77.44
2022-08-05T02:05:01.416Z,77.36
2022-08-05T02:07:33.744Z,77.64
2022-08-05T02:10:04.269Z,77.56
2022-08-05T02:12:43.164Z,77.29
2022-08-05T02:15:19.622Z,77.75
2022-08-05T02:18:32.359Z,77.48
2022-08-05T02:20:47.308Z,77.62
2022-08-05T02:23:22.396Z,77.65
2022-08-05T02:25:52.805Z,77.36
2022-08-05T02:28:29.168Z,77.63
2022-08-05T02:31:06.049Z,77.97
2022-08-05T02:33:42.081Z,78.10
2022-08-05T02:36:16.037Z,78.34
2022-08-05T02:38:53.646Z,78.39
2022-08-05T02:41:28.596Z,78.58
2022-08-05T02:44:11.200Z,78.62
2022-08-05T02:46:58.570Z,78.97
2022-08-05T02:49:37.162Z,79.05
2022-08-05T02:52:11.515Z,79.01
2022-08-05T02:54:42.330Z,79.17
2022-08-05T02:58:11.929Z,79.29
2022-08-05T03:00:12.558Z,79.54
2022-08-05T03:02:47.170Z,79.64
2022-08-05T03:05:21.839Z,80.06
2022-08-05T03:08:09.487Z,80.54
2022-08-05T03:10:39.393Z,81.11
2022-08-05T03:13:16.833Z,82.20
2022-08-05T03:15:47.307Z,83.79
2022-08-05T03:18:30.115Z,86.46
2022-08-05T03:21:00.383Z,87.84
2022-08-05T03:23:30.140Z,88.40
2022-08-05T03:26:04.449Z,88.82
2022-08-05T03:28:50.379Z,89.53
2022-08-05T03:31:55.607Z,89.83
2022-08-05T03:34:13.888Z,89.86
2022-08-05T03:36:43.792Z,90.12
2022-08-05T03:39:20.201Z,89.72
2022-08-05T03:41:57.217Z,90.26
2022-08-05T03:44:29.121Z,90.01
2022-08-05T03:46:58.793Z,90.14
2022-08-05T03:49:52.027Z,90.12
2022-08-05T03:52:49.352Z,90.03
2022-08-05T03:56:01.438Z,89.91
2022-08-05T03:58:08.354Z,90.23
2022-08-05T04:00:41.897Z,89.85
2022-08-05T04:03:15.040Z,89.88
2022-08-05T04:06:01.052Z,90.27
2022-08-05T04:08:36.216Z,90.40
2022-08-05T04:11:08.644Z,90.35
2022-08-05T04:13:49.676Z,90.32
2022-08-05T04:16:25.328Z,90.47
2022-08-05T04:19:02.742Z,90.58
2022-08-05T04:22:10.007Z,90.49
2022-08-05T04:24:32.686Z,90.64
2022-08-05T04:27:02.302Z,90.19
2022-08-05T04:29:32.183Z,90.62
2022-08-05T04:32:02.427Z,90.71
2022-08-05T04:34:34.552Z,90.55
2022-08-05T04:37:08.459Z,90.68
2022-08-05T04:39:39.171Z,90.72
2022-08-05T04:42:10.769Z,90.66
2022-08-05T04:44:41.681Z,90.59
2022-08-05T04:47:13.651Z,90.40
2022-08-05T04:50:02.026Z,90.55
2022-08-05T04:52:38.985Z,90.72
2022-08-05T04:55:14.442Z,90.44
2022-08-05T04:57:47.776Z,90.53
2022-08-05T05:00:23.519Z,90.38
2022-08-05T05:02:53.760Z,90.67
2022-08-05T05:05:28.682Z,90.28
2022-08-05T05:08:03.528Z,89.98
2022-08-05T05:10:34.621Z,90.19
2022-08-05T05:13:05.068Z,90.44
2022-08-05T05:15:59.044Z,90.30
2022-08-05T05:18:31.601Z,90.13
2022-08-05T05:21:05.532Z,89.75
2022-08-05T05:24:02.111Z,89.30
2022-08-05T05:26:28.778Z,88.88
2022-08-05T05:29:14.411Z,88.58
2022-08-05T05:31:46.266Z,88.43
2022-08-05T05:34:21.177Z,88.06
2022-08-05T05:36:55.476Z,88.02
2022-08-05T05:39:31.683Z,87.73
2022-08-05T05:42:04.768Z,87.53
2022-08-05T05:44:36.647Z,87.30
2022-08-05T05:47:21.236Z,87.02
2022-08-05T05:49:56.639Z,87.09
2022-08-05T05:52:33.192Z,87.25
2022-08-05T05:55:13.551Z,86.91
2022-08-05T05:57:53.016Z,86.84
2022-08-05T06:00:27.604Z,86.56
2022-08-05T06:03:01.420Z,86.48
2022-08-05T06:05:31.911Z,85.83
2022-08-05T06:08:02.290Z,85.82
2022-08-05T06:10:37.560Z,85.87
2022-08-05T06:13:18.863Z,85.73
2022-08-05T06:16:29.280Z,85.07
2022-08-05T06:18:39.354Z,84.71
2022-08-05T06:21:18.563Z,84.74
2022-08-05T06:23:49.789Z,84.66
2022-08-05T06:26:24.216Z,84.41
2022-08-05T06:28:54.712Z,84.55
2022-08-05T06:31:32.168Z,84.69
2022-08-05T06:34:07.634Z,84.32
2022-08-05T06:36:57.413Z,83.88
2022-08-05T06:39:28.584Z,84.11
2022-08-05T06:42:04.643Z,84.11
2022-08-05T06:44:34.793Z,84.12
2022-08-05T06:47:04.391Z,83.92
2022-08-05T06:50:00.863Z,84.30
2022-08-05T06:52:36.609Z,83.81
2022-08-05T06:55:08.502Z,84.11
2022-08-05T06:58:02.768Z,83.67
2022-08-05T07:00:32.843Z,83.23
2022-08-05T07:03:03.255Z,83.33
2022-08-05T07:05:41.295Z,82.96
2022-08-05T07:08:11.279Z,83.07
2022-08-05T07:10:52.899Z,82.72
2022-08-05T07:13:57.568Z,82.28
2022-08-05T07:17:58.678Z,82.22
2022-08-05T07:20:16.453Z,82.00
2022-08-05T07:22:28.116Z,81.93
2022-08-05T07:25:23.257Z,82.07
2022-08-05T07:27:58.373Z,82.23
2022-08-05T07:30:39.075Z,81.85
2022-08-05T07:33:16.007Z,81.41
2022-08-05T07:36:02.249Z,81.01
2022-08-05T07:38:43.412Z,81.20
2022-08-05T07:42:09.232Z,81.49
2022-08-05T07:44:18.660Z,81.48
2022-08-05T07:46:51.851Z,81.92
2022-08-05T07:49:22.011Z,82.25
2022-08-05T07:51:54.868Z,82.51
2022-08-05T07:54:30.233Z,82.62
2022-08-05T07:57:41.334Z,82.43
2022-08-05T07:59:51.144Z,82.50
2022-08-05T08:02:30.912Z,82.74
2022-08-05T08:05:01.512Z,83.36
2022-08-05T08:07:39.660Z,83.89
2022-08-05T08:10:21.312Z,84.10
2022-08-05T08:12:51.082Z,84.39
2022-08-05T08:16:33.387Z,84.40
2022-08-05T08:18:14.397Z,84.64
2022-08-05T08:21:02.963Z,84.83
2022-08-05T08:24:02.398Z,84.98
2022-08-05T08:26:26.522Z,84.75
2022-08-05T08:29:02.317Z,84.60
2022-08-05T08:31:48.601Z,84.26
2022-08-05T08:34:30.808Z,84.33
2022-08-05T08:37:03.220Z,84.29
2022-08-05T08:39:37.579Z,84.09
2022-08-05T08:42:27.582Z,83.83
2022-08-05T08:45:23.520Z,84.09
2022-08-05T08:48:13.054Z,83.57
2022-08-05T08:51:22.493Z,84.17
2022-08-05T08:53:36.503Z,84.53
2022-08-05T08:56:06.584Z,85.26
2022-08-05T08:58:37.491Z,84.72
2022-08-05T09:01:17.144Z,85.07
2022-08-05T09:03:54.373Z,84.71
2022-08-05T09:06:32.171Z,84.14
2022-08-05T09:09:07.384Z,83.40
2022-08-05T09:11:51.671Z,83.83
2022-08-05T09:14:56.576Z,84.04
2022-08-05T09:17:15.915Z,83.90
2022-08-05T09:20:08.482Z,84.11
2022-08-05T09:23:18.697Z,84.06
2022-08-05T09:26:00.898Z,84.17
2022-08-05T09:28:34.076Z,84.17
2022-08-05T09:31:43.687Z,84.14
2022-08-05T09:33:59.037Z,83.55
2022-08-05T09:36:45.952Z,83.25
2022-08-05T09:39:41.961Z,82.83
2022-08-05T09:42:23.391Z,82.88
2022-08-05T09:45:17.895Z,82.79
2022-08-05T09:47:56.237Z,82.85
2022-08-05T09:50:44.599Z,82.38
2022-08-05T09:53:25.727Z,82.36
2022-08-05T09:56:03.917Z,81.99
2022-08-05T09:58:35.419Z,81.66
2022-08-05T10:01:13.744Z,81.49
2022-08-05T10:04:00.312Z,81.37
2022-08-05T10:06:30.918Z,81.84
2022-08-05T10:09:27.286Z,81.61
2022-08-05T10:12:18.891Z,81.46
2022-08-05T10:15:20.634Z,81.40
2022-08-05T10:18:09.124Z,81.72
2022-08-05T10:20:41.739Z,81.76
2022-08-05T10:23:34.169Z,81.70
2022-08-05T10:26:04.937Z,81.31
2022-08-05T10:28:39.624Z,81.29
2022-08-05T10:32:50.668Z,80.93
2022-08-05T10:34:01.511Z,80.03
2022-08-05T10:36:32.272Z,79.13
2022-08-05T10:39:10.400Z,78.19
2022-08-05T10:41:50.421Z,77.26
2022-08-05T10:44:23.639Z,75.24
2022-08-05T10:46:56.459Z,73.72
2022-08-05T10:49:33.400Z,72.83
2022-08-05T10:52:46.960Z,71.68
2022-08-05T10:55:19.310Z,72.48
2022-08-05T10:57:51.376Z,71.72
2022-08-05T11:00:26.393Z,70.69
2022-08-05T11:03:25.285Z,69.37
2022-08-05T11:06:16.210Z,67.90
2022-08-05T11:09:16.797Z,67.27
2022-08-05T11:11:53.378Z,64.78
2022-08-05T11:14:57.638Z,65.22
2022-08-05T11:18:00.520Z,65.85
2022-08-05T11:20:39.148Z,67.27
2022-08-05T11:23:33.321Z,65.98
2022-08-05T11:26:32.134Z,65.76
2022-08-05T11:29:06.906Z,63.88
2022-08-05T11:31:54.345Z,62.46
2022-08-05T11:34:51.393Z,62.91
2022-08-05T11:38:28.730Z,62.88
2022-08-05T11:41:03.504Z,62.30
2022-08-05T11:44:04.462Z,62.31
2022-08-05T11:46:36.414Z,62.48
2022-08-05T11:49:10.040Z,61.51
2022-08-05T11:51:49.137Z,60.69
2022-08-05T11:54:33.633Z,59.68
2022-08-05T11:57:07.971Z,59.32
2022-08-05T11:59:50.205Z,57.62
2022-08-05T12:02:29.726Z,58.43
2022-08-05T12:05:07.637Z,57.86
2022-08-05T12:08:09.628Z,58.64
2022-08-05T12:10:45.000Z,58.77
2022-08-05T12:13:28.042Z,58.25
2022-08-05T12:16:14.775Z,58.47
2022-08-05T12:18:49.305Z,58.51
2022-08-05T12:21:24.755Z,57.90
2022-08-05T12:24:06.782Z,58.18
2022-08-05T12:26:38.697Z,58.10
2022-08-05T12:29:15.898Z,57.04
2022-08-05T12:31:53.189Z,56.31
2022-08-05T12:34:28.277Z,55.57
2022-08-05T12:36:59.734Z,55.63
2022-08-05T12:39:37.083Z,55.70
2022-08-05T12:42:14.621Z,55.51
2022-08-05T12:44:45.055Z,55.00
2022-08-05T12:47:17.230Z,55.22
2022-08-05T12:50:03.725Z,54.48
2022-08-05T12:52:39.154Z,53.71
2022-08-05T12:55:26.154Z,53.41
2022-08-05T12:58:50.216Z,53.13
2022-08-05T13:02:02.290Z,52.81
2022-08-05T13:03:42.145Z,53.16
2022-08-05T13:06:16.481Z,52.88
2022-08-05T13:08:52.027Z,52.83
2022-08-05T13:11:25.316Z,52.24
2022-08-05T13:14:24.550Z,51.97
2022-08-05T13:17:08.977Z,51.70
2022-08-05T13:19:51.125Z,51.97
2022-08-05T13:22:27.943Z,52.21
2022-08-05T13:25:05.170Z,52.41
2022-08-05T13:27:39.927Z,52.54
2022-08-05T13:30:34.757Z,51.90
2022-08-05T13:33:02.233Z,51.64
2022-08-05T13:35:47.176Z,51.45
2022-08-05T13:38:30.552Z,51.00
2022-08-05T13:41:01.238Z,50.69
2022-08-05T13:43:43.387Z,50.73
2022-08-05T13:46:14.175Z,50.81
2022-08-05T13:48:57.741Z,51.29
2022-08-05T13:51:36.557Z,51.86
2022-08-05T13:54:12.247Z,52.28
2022-08-05T13:56:45.163Z,52.38
2022-08-05T13:59:27.433Z,52.34
2022-08-05T14:02:01.470Z,52.72
2022-08-05T14:04:49.637Z,52.67
2022-08-05T14:07:25.873Z,52.41
2022-08-05T14:10:12.896Z,52.13
2022-08-05T14:12:48.626Z,52.31
2022-08-05T14:16:08.157Z,52.21
2022-08-05T14:18:15.025Z,51.85
2022-08-05T14:20:48.828Z,51.84
2022-08-05T14:23:24.537Z,52.24
2022-08-05T14:25:59.116Z,51.66
2022-08-05T14:28:29.703Z,51.25
2022-08-05T14:31:02.883Z,50.94
2022-08-05T14:33:59.593Z,50.12
2022-08-05T14:36:23.533Z,49.86
2022-08-05T14:38:54.177Z,49.90
2022-08-05T14:41:23.964Z,49.45
2022-08-05T14:44:02.168Z,49.38
2022-08-05T14:46:41.704Z,48.86
2022-08-05T14:49:12.018Z,48.54
2022-08-05T14:51:43.236Z,48.32
2022-08-05T14:54:28.141Z,48.77
2022-08-05T14:57:00.305Z,48.01
2022-08-05T14:59:35.616Z,47.98
2022-08-05T15:02:14.992Z,47.99
2022-08-05T15:04:47.776Z,48.10
2022-08-05T15:08:08.704Z,47.73
2022-08-05T15:10:09.932Z,47.77
2022-08-05T15:13:00.343Z,47.88
2022-08-05T15:15:54.334Z,47.24
2022-08-05T15:18:22.028Z,47.38
2022-08-05T15:20:51.639Z,46.42
2022-08-05T15:23:21.485Z,46.95
2022-08-05T15:25:55.872Z,46.96
2022-08-05T15:28:28.171Z,47.71
2022-08-05T15:30:59.363Z,47.05
2022-08-05T15:34:04.848Z,47.27
2022-08-05T15:36:25.715Z,47.90
2022-08-05T15:40:42.699Z,47.62
2022-08-05T15:41:57.311Z,47.73
2022-08-05T15:44:28.331Z,47.73
2022-08-05T15:47:00.442Z,48.36
2022-08-05T15:49:48.105Z,47.94
2022-08-05T15:52:51.691Z,47.31
2022-08-05T15:55:15.605Z,47.26
2022-08-05T15:57:49.079Z,46.87
2022-08-05T16:00:26.518Z,46.35
2022-08-05T16:03:02.557Z,46.48
2022-08-05T16:05:35.267Z,45.85
2022-08-05T16:08:08.922Z,45.29
2022-08-05T16:10:39.042Z,44.61
2022-08-05T16:13:11.072Z,44.13
2022-08-05T16:15:40.795Z,43.88
2022-08-05T16:18:12.344Z,43.62
2022-08-05T16:20:46.767Z,43.77
2022-08-05T16:23:16.374Z,44.00
2022-08-05T16:25:46.167Z,44.15
2022-08-05T16:28:18.084Z,44.52
2022-08-05T16:30:47.686Z,44.34
2022-08-05T16:33:20.007Z,43.57
2022-08-05T16:35:53.054Z,42.86
2022-08-05T16:38:27.996Z,42.19
2022-08-05T16:41:00.122Z,41.54
2022-08-05T16:43:33.109Z,41.40
2022-08-05T16:46:23.961Z,40.92
2022-08-05T16:48:55.680Z,41.20
2022-08-05T16:51:31.061Z,40.87
2022-08-05T16:54:16.246Z,40.70
2022-08-05T16:56:47.122Z,39.86
2022-08-05T16:59:22.312Z,40.01
2022-08-05T17:01:54.759Z,40.37
2022-08-05T17:04:28.219Z,40.29
2022-08-05T17:07:03.596Z,40.13
2022-08-05T17:09:59.429Z,40.20
2022-08-05T17:12:51.486Z,40.34
2022-08-05T17:15:19.585Z,40.36
2022-08-05T17:18:02.234Z,40.22
2022-08-05T17:20:32.047Z,40.36
2022-08-05T17:23:04.197Z,40.53
2022-08-05T17:25:40.387Z,41.18
2022-08-05T17:28:11.034Z,40.93
2022-08-05T17:30:52.162Z,41.58
2022-08-05T17:33:23.217Z,41.07
2022-08-05T17:36:09.076Z,41.29
2022-08-05T17:38:42.435Z,41.26
2022-08-05T17:42:17.351Z,41.01
2022-08-05T17:44:02.164Z,41.12
2022-08-05T17:46:32.936Z,40.92
2022-08-05T17:49:02.493Z,41.40
2022-08-05T17:51:40.307Z,41.56
2022-08-05T17:54:12.959Z,41.86
2022-08-05T17:56:44.725Z,42.17
2022-08-05T17:59:22.581Z,42.28
2022-08-05T18:01:52.351Z,42.15
2022-08-05T18:04:27.836Z,42.50
2022-08-05T18:07:00.546Z,42.52
2022-08-05T18:09:59.848Z,42.56
2022-08-05T18:12:24.496Z,42.63
2022-08-05T18:14:54.758Z,42.70
2022-08-05T18:17:59.270Z,43.22
2022-08-05T18:20:15.441Z,43.62
2022-08-05T18:22:53.831Z,43.52
2022-08-05T18:25:33.163Z,43.70
2022-08-05T18:28:05.018Z,44.25
2022-08-05T18:30:35.709Z,44.35
2022-08-05T18:33:13.522Z,44.47
2022-08-05T18:36:00.583Z,44.86
2022-08-05T18:38:33.385Z,44.96
2022-08-05T18:41:59.548Z,45.24
2022-08-05T18:43:57.023Z,45.25
2022-08-05T18:46:35.410Z,45.88
2022-08-05T18:49:30.385Z,45.91
2022-08-05T18:52:12.862Z,46.51
2022-08-05T18:54:45.989Z,46.02
2022-08-05T18:57:19.740Z,46.48
2022-08-05T19:00:01.654Z,46.65
2022-08-05T19:02:33.000Z,46.98
2022-08-05T19:06:06.159Z,47.26
2022-08-05T19:07:53.037Z,47.11
2022-08-05T19:10:27.868Z,47.45
2022-08-05T19:13:00.784Z,48.10
2022-08-05T19:16:00.144Z,48.13
2022-08-05T19:18:22.670Z,48.04
2022-08-05T19:20:53.890Z,48.42
2022-08-05T19:24:07.299Z,49.05
2022-08-05T19:26:13.911Z,49.28
2022-08-05T19:28:46.879Z,49.57
2022-08-05T19:31:21.553Z,49.73
2022-08-05T19:33:55.987Z,49.93
2022-08-05T19:36:26.773Z,50.18
2022-08-05T19:39:01.037Z,50.64
2022-08-05T19:42:05.783Z,50.89
2022-08-05T19:44:23.303Z,51.51
2022-08-05T19:46:58.894Z,51.67
2022-08-05T19:49:28.683Z,51.60
2022-08-05T19:52:09.326Z,52.00
2022-08-05T19:54:50.553Z,52.21
2022-08-05T19:57:48.984Z,52.95
2022-08-05T20:00:14.682Z,53.15
2022-08-05T20:02:44.238Z,53.54
2022-08-05T20:05:16.756Z,53.98
2022-08-05T20:07:58.899Z,54.04
2022-08-05T20:10:29.048Z,54.31
2022-08-05T20:12:58.625Z,54.80
2022-08-05T20:15:52.253Z,55.23
2022-08-05T20:18:32.852Z,55.57
2022-08-05T20:21:04.432Z,56.28
2022-08-05T20:23:39.653Z,56.70
2022-08-05T20:26:23.441Z,56.83
2022-08-05T20:28:57.006Z,57.31
2022-08-05T20:31:42.894Z,57.63
2022-08-05T20:34:20.175Z,57.45
2022-08-05T20:36:50.014Z,57.81
2022-08-05T20:39:19.704Z,57.74
2022-08-05T20:41:49.453Z,57.88
2022-08-05T20:44:30.621Z,58.17
2022-08-05T20:47:05.173Z,58.50
2022-08-05T20:49:39.661Z,58.27
2022-08-05T20:52:10.787Z,58.45
2022-08-05T20:54:43.398Z,58.67
2022-08-05T20:57:43.281Z,58.99
2022-08-05T21:00:40.325Z,59.16
2022-08-05T21:03:09.150Z,59.45
2022-08-05T21:05:53.465Z,59.20
2022-08-05T21:08:28.053Z,59.63
2022-08-05T21:11:09.315Z,59.65
2022-08-05T21:13:55.852Z,60.00
2022-08-05T21:16:30.026Z,60.01
2022-08-05T21:19:03.562Z,60.55
2022-08-05T21:21:43.702Z,60.70
2022-08-05T21:24:15.709Z,60.61
2022-08-05T21:26:58.497Z,60.88
2022-08-05T21:29:31.568Z,61.28
2022-08-05T21:32:02.845Z,61.65
2022-08-05T21:34:35.605Z,62.06
2022-08-05T21:37:05.402Z,62.13
2022-08-05T21:39:35.022Z,62.68
2022-08-05T21:42:30.757Z,62.84
2022-08-05T21:45:00.369Z,62.71
2022-08-05T21:47:55.604Z,63.15
2022-08-05T21:50:22.352Z,63.39
2022-08-05T21:52:51.979Z,63.23
2022-08-05T21:55:43.040Z,63.65
2022-08-05T21:58:17.137Z,63.67
2022-08-05T22:00:51.035Z,63.80
2022-08-05T22:03:52.273Z,63.86
2022-08-05T22:06:16.576Z,63.80
2022-08-05T22:08:52.920Z,63.96
2022-08-05T22:11:35.266Z,64.30
2022-08-05T22:14:34.695Z,64.50
2022-08-05T22:16:56.907Z,64.66
2022-08-05T22:20:00.615Z,65.08
2022-08-05T22:22:27.912Z,65.15
2022-08-05T22:25:18.067Z,65.48
2022-08-05T22:28:10.577Z,65.54
2022-08-05T22:30:44.250Z,65.73
2022-08-05T22:33:55.348Z,66.03
2022-08-05T22:36:16.348Z,65.91
2022-08-05T22:38:49.435Z,65.68
2022-08-05T22:42:04.316Z,65.90
2022-08-05T22:44:11.823Z,65.98
2022-08-05T22:46:41.942Z,65.57
2022-08-05T22:50:17.317Z,65.70
2022-08-05T22:52:15.531Z,65.70
2022-08-05T22:54:57.836Z,65.51
2022-08-05T22:57:27.413Z,65.75
2022-08-05T23:00:07.994Z,65.32
2022-08-05T23:02:46.621Z,65.38
2022-08-05T23:05:26.351Z,65.33
2022-08-05T23:07:56.571Z,65.67
2022-08-05T23:10:31.861Z,65.67
2022-08-05T23:13:01.841Z,65.44
2022-08-05T23:15:35.273Z,65.46
2022-08-05T23:18:11.735Z,65.55
2022-08-05T23:20:45.659Z,65.71
2022-08-05T23:23:15.280Z,65.83
2022-08-05T23:25:51.408Z,65.80
2022-08-05T23:28:28.994Z,66.17
2022-08-05T23:31:15.808Z,66.20
2022-08-05T23:34:06.208Z,66.34
2022-08-05T23:36:38.722Z,66.43
2022-08-05T23:39:17.544Z,66.79
2022-08-05T23:41:56.481Z,67.08
2022-08-05T23:44:31.054Z,67.17
2022-08-05T23:47:02.469Z,67.30
2022-08-05T23:49:45.626Z,67.64
2022-08-05T23:52:36.205Z,67.69
2022-08-05T23:55:19.829Z,67.94
2022-08-05T23:57:53.895Z,68.29
